sensor_id;sensor_type;location;lat;lon;timestamp;P1;durP1;ratioP1;P2;durP2;ratioP2
5939;SDS011;2995;-31.998;115.906;2022-09-30T00:05:58;4.70;;;1.40;;
5939;SDS011;2995;-31.998;115.906;2022-09-30T00:21:00;3.03;;;1.30;;
5939;SDS011;2995;-31.998;115.906;2022-09-30T00:23:33;5.03;;;1.67;;
5939;SDS011;2995;-31.998;115.906;2022-09-30T00:26:05;3.20;;;1.37;;
5939;SDS011;2995;-31.998;115.906;2022-09-30T00:28:39;2.23;;;1.30;;
5939;SDS011;2995;-31.998;115.906;2022-09-30T00:31:12;2.20;;;1.60;;
5939;SDS011;2995;-31.998;115.906;2022-09-30T00:33:44;3.33;;;2.00;;
5939;SDS011;2995;-31.998;115.906;2022-09-30T00:36:34;3.93;;;1.40;;
5939;SDS011;2995;-31.998;115.906;2022-09-30T00:39:07;3.90;;;1.60;;
5939;SDS011;2995;-31.998;115.906;2022-09-30T00:41:40;2.47;;;1.40;;
5939;SDS011;2995;-31.998;115.906;2022-09-30T00:47:23;3.03;;;1.33;;
5939;SDS011;2995;-31.998;115.906;2022-09-30T00:50:05;5.63;;;1.37;;
5939;SDS011;2995;-31.998;115.906;2022-09-30T00:52:45;3.50;;;1.60;;
5939;SDS011;2995;-31.998;115.906;2022-09-30T00:58:11;7.00;;;1.60;;
5939;SDS011;2995;-31.998;115.906;2022-09-30T01:00:46;4.17;;;1.50;;
5939;SDS011;2995;-31.998;115.906;2022-09-30T01:03:18;5.80;;;1.60;;
5939;SDS011;2995;-31.998;115.906;2022-09-30T01:05:51;5.97;;;1.60;;
5939;SDS011;2995;-31.998;115.906;2022-09-30T01:08:24;3.47;;;2.00;;
5939;SDS011;2995;-31.998;115.906;2022-09-30T01:10:58;2.87;;;1.47;;
5939;SDS011;2995;-31.998;115.906;2022-09-30T01:13:30;3.00;;;1.63;;
5939;SDS011;2995;-31.998;115.906;2022-09-30T01:16:07;2.97;;;1.80;;
5939;SDS011;2995;-31.998;115.906;2022-09-30T01:18:52;8.00;;;2.67;;
5939;SDS011;2995;-31.998;115.906;2022-09-30T01:21:38;5.03;;;2.57;;
5939;SDS011;2995;-31.998;115.906;2022-09-30T01:24:49;7.50;;;3.30;;
5939;SDS011;2995;-31.998;115.906;2022-09-30T01:27:40;5.07;;;3.23;;
5939;SDS011;2995;-31.998;115.906;2022-09-30T01:30:43;4.07;;;2.30;;
5939;SDS011;2995;-31.998;115.906;2022-09-30T01:33:32;6.17;;;2.23;;
5939;SDS011;2995;-31.998;115.906;2022-09-30T01:36:23;8.57;;;3.20;;
5939;SDS011;2995;-31.998;115.906;2022-09-30T01:39:11;7.40;;;2.10;;
5939;SDS011;2995;-31.998;115.906;2022-09-30T01:41:54;4.50;;;2.53;;
5939;SDS011;2995;-31.998;115.906;2022-09-30T01:44:36;4.83;;;2.20;;
5939;SDS011;2995;-31.998;115.906;2022-09-30T01:47:20;3.23;;;2.67;;
5939;SDS011;2995;-31.998;115.906;2022-09-30T01:49:56;4.63;;;3.00;;
5939;SDS011;2995;-31.998;115.906;2022-09-30T01:52:32;4.00;;;2.97;;
5939;SDS011;2995;-31.998;115.906;2022-09-30T01:55:12;3.90;;;1.90;;
5939;SDS011;2995;-31.998;115.906;2022-09-30T01:57:51;4.97;;;2.07;;
5939;SDS011;2995;-31.998;115.906;2022-09-30T02:00:27;7.20;;;2.20;;
5939;SDS011;2995;-31.998;115.906;2022-09-30T02:03:03;4.10;;;1.67;;
5939;SDS011;2995;-31.998;115.906;2022-09-30T02:05:38;3.97;;;1.53;;
5939;SDS011;2995;-31.998;115.906;2022-09-30T02:08:14;4.53;;;1.70;;
5939;SDS011;2995;-31.998;115.906;2022-09-30T02:10:51;2.80;;;1.63;;
5939;SDS011;2995;-31.998;115.906;2022-09-30T02:13:28;3.40;;;1.60;;
5939;SDS011;2995;-31.998;115.906;2022-09-30T02:16:04;5.00;;;1.50;;
5939;SDS011;2995;-31.998;115.906;2022-09-30T02:18:42;2.53;;;1.50;;
5939;SDS011;2995;-31.998;115.906;2022-09-30T02:21:16;8.87;;;1.60;;
5939;SDS011;2995;-31.998;115.906;2022-09-30T02:23:53;2.50;;;1.40;;
5939;SDS011;2995;-31.998;115.906;2022-09-30T02:26:28;8.40;;;1.50;;
5939;SDS011;2995;-31.998;115.906;2022-09-30T02:29:04;2.40;;;1.30;;
5939;SDS011;2995;-31.998;115.906;2022-09-30T02:31:41;2.13;;;1.27;;
5939;SDS011;2995;-31.998;115.906;2022-09-30T02:34:17;1.70;;;1.03;;
5939;SDS011;2995;-31.998;115.906;2022-09-30T02:36:53;2.00;;;1.10;;
5939;SDS011;2995;-31.998;115.906;2022-09-30T02:39:30;1.53;;;1.03;;
5939;SDS011;2995;-31.998;115.906;2022-09-30T02:42:10;3.57;;;1.37;;
5939;SDS011;2995;-31.998;115.906;2022-09-30T02:44:43;6.13;;;1.50;;
5939;SDS011;2995;-31.998;115.906;2022-09-30T02:47:15;4.80;;;1.20;;
5939;SDS011;2995;-31.998;115.906;2022-09-30T02:49:57;2.37;;;1.33;;
5939;SDS011;2995;-31.998;115.906;2022-09-30T02:52:35;2.50;;;1.20;;
5939;SDS011;2995;-31.998;115.906;2022-09-30T02:55:17;2.20;;;1.10;;
5939;SDS011;2995;-31.998;115.906;2022-09-30T02:57:56;1.80;;;1.30;;
5939;SDS011;2995;-31.998;115.906;2022-09-30T03:00:34;2.30;;;1.20;;
5939;SDS011;2995;-31.998;115.906;2022-09-30T03:03:07;6.00;;;1.20;;
5939;SDS011;2995;-31.998;115.906;2022-09-30T03:05:43;4.03;;;1.30;;
5939;SDS011;2995;-31.998;115.906;2022-09-30T03:08:14;2.73;;;1.70;;
5939;SDS011;2995;-31.998;115.906;2022-09-30T03:10:46;3.73;;;1.67;;
5939;SDS011;2995;-31.998;115.906;2022-09-30T03:13:29;4.30;;;1.30;;
5939;SDS011;2995;-31.998;115.906;2022-09-30T03:16:15;2.47;;;1.07;;
5939;SDS011;2995;-31.998;115.906;2022-09-30T03:18:56;2.40;;;1.03;;
5939;SDS011;2995;-31.998;115.906;2022-09-30T03:21:58;2.87;;;1.23;;
5939;SDS011;2995;-31.998;115.906;2022-09-30T03:24:53;2.10;;;1.07;;
5939;SDS011;2995;-31.998;115.906;2022-09-30T03:27:54;5.23;;;1.10;;
5939;SDS011;2995;-31.998;115.906;2022-09-30T03:30:36;1.90;;;1.30;;
5939;SDS011;2995;-31.998;115.906;2022-09-30T03:33:16;6.33;;;1.33;;
5939;SDS011;2995;-31.998;115.906;2022-09-30T03:35:53;2.87;;;1.23;;
5939;SDS011;2995;-31.998;115.906;2022-09-30T03:38:33;2.70;;;1.87;;
5939;SDS011;2995;-31.998;115.906;2022-09-30T03:41:14;2.97;;;1.90;;
5939;SDS011;2995;-31.998;115.906;2022-09-30T03:43:53;4.37;;;2.57;;
5939;SDS011;2995;-31.998;115.906;2022-09-30T03:46:31;2.70;;;1.90;;
5939;SDS011;2995;-31.998;115.906;2022-09-30T03:49:07;2.80;;;1.97;;
5939;SDS011;2995;-31.998;115.906;2022-09-30T03:51:42;2.10;;;1.20;;
5939;SDS011;2995;-31.998;115.906;2022-09-30T03:54:16;3.33;;;1.60;;
5939;SDS011;2995;-31.998;115.906;2022-09-30T03:56:48;3.30;;;1.40;;
5939;SDS011;2995;-31.998;115.906;2022-09-30T03:59:20;3.13;;;1.37;;
5939;SDS011;2995;-31.998;115.906;2022-09-30T04:01:53;2.67;;;1.53;;
5939;SDS011;2995;-31.998;115.906;2022-09-30T04:04:24;3.37;;;1.00;;
5939;SDS011;2995;-31.998;115.906;2022-09-30T04:06:55;4.30;;;1.37;;
5939;SDS011;2995;-31.998;115.906;2022-09-30T04:09:29;5.90;;;1.37;;
5939;SDS011;2995;-31.998;115.906;2022-09-30T04:12:00;5.80;;;1.57;;
5939;SDS011;2995;-31.998;115.906;2022-09-30T04:14:32;2.17;;;1.20;;
5939;SDS011;2995;-31.998;115.906;2022-09-30T04:28:12;4.20;;;1.30;;
5939;SDS011;2995;-31.998;115.906;2022-09-30T04:30:44;2.20;;;1.10;;
5939;SDS011;2995;-31.998;115.906;2022-09-30T04:33:15;1.73;;;1.10;;
5939;SDS011;2995;-31.998;115.906;2022-09-30T04:35:47;4.60;;;1.17;;
5939;SDS011;2995;-31.998;115.906;2022-09-30T04:38:21;2.93;;;1.30;;
5939;SDS011;2995;-31.998;115.906;2022-09-30T04:40:52;3.13;;;1.13;;
5939;SDS011;2995;-31.998;115.906;2022-09-30T04:43:26;3.40;;;1.13;;
5939;SDS011;2995;-31.998;115.906;2022-09-30T04:45:58;9.73;;;1.23;;
5939;SDS011;2995;-31.998;115.906;2022-09-30T04:48:29;4.47;;;1.20;;
5939;SDS011;2995;-31.998;115.906;2022-09-30T04:51:00;4.07;;;1.40;;
5939;SDS011;2995;-31.998;115.906;2022-09-30T04:53:32;3.10;;;1.27;;
5939;SDS011;2995;-31.998;115.906;2022-09-30T04:56:03;5.43;;;1.20;;
5939;SDS011;2995;-31.998;115.906;2022-09-30T04:58:37;3.17;;;1.20;;
5939;SDS011;2995;-31.998;115.906;2022-09-30T05:01:09;2.23;;;1.20;;
5939;SDS011;2995;-31.998;115.906;2022-09-30T05:03:40;1.90;;;0.90;;
5939;SDS011;2995;-31.998;115.906;2022-09-30T05:06:12;3.20;;;1.33;;
5939;SDS011;2995;-31.998;115.906;2022-09-30T05:08:43;4.57;;;1.10;;
5939;SDS011;2995;-31.998;115.906;2022-09-30T05:11:15;2.77;;;1.10;;
5939;SDS011;2995;-31.998;115.906;2022-09-30T05:13:49;4.43;;;1.20;;
5939;SDS011;2995;-31.998;115.906;2022-09-30T05:16:20;4.60;;;1.23;;
5939;SDS011;2995;-31.998;115.906;2022-09-30T05:18:53;3.10;;;1.33;;
5939;SDS011;2995;-31.998;115.906;2022-09-30T05:21:24;2.20;;;1.50;;
5939;SDS011;2995;-31.998;115.906;2022-09-30T05:23:56;3.10;;;1.03;;
5939;SDS011;2995;-31.998;115.906;2022-09-30T05:26:27;2.10;;;1.33;;
5939;SDS011;2995;-31.998;115.906;2022-09-30T05:29:00;6.40;;;1.33;;
5939;SDS011;2995;-31.998;115.906;2022-09-30T05:31:31;3.30;;;1.23;;
5939;SDS011;2995;-31.998;115.906;2022-09-30T05:34:03;6.73;;;1.70;;
5939;SDS011;2995;-31.998;115.906;2022-09-30T05:36:34;6.53;;;1.30;;
5939;SDS011;2995;-31.998;115.906;2022-09-30T05:39:05;2.30;;;1.10;;
5939;SDS011;2995;-31.998;115.906;2022-09-30T05:41:37;2.93;;;1.20;;
5939;SDS011;2995;-31.998;115.906;2022-09-30T05:44:10;5.33;;;1.33;;
5939;SDS011;2995;-31.998;115.906;2022-09-30T05:46:42;4.20;;;1.07;;
5939;SDS011;2995;-31.998;115.906;2022-09-30T05:49:13;2.90;;;1.03;;
5939;SDS011;2995;-31.998;115.906;2022-09-30T05:51:44;2.00;;;1.20;;
5939;SDS011;2995;-31.998;115.906;2022-09-30T05:54:15;1.77;;;1.10;;
5939;SDS011;2995;-31.998;115.906;2022-09-30T05:56:47;3.33;;;1.00;;
5939;SDS011;2995;-31.998;115.906;2022-09-30T05:59:20;2.03;;;1.00;;
5939;SDS011;2995;-31.998;115.906;2022-09-30T06:01:51;2.50;;;1.10;;
5939;SDS011;2995;-31.998;115.906;2022-09-30T06:04:23;3.03;;;1.10;;
5939;SDS011;2995;-31.998;115.906;2022-09-30T06:06:54;2.43;;;1.10;;
5939;SDS011;2995;-31.998;115.906;2022-09-30T06:09:25;4.33;;;1.30;;
5939;SDS011;2995;-31.998;115.906;2022-09-30T06:11:57;3.67;;;1.47;;
5939;SDS011;2995;-31.998;115.906;2022-09-30T06:14:30;3.13;;;1.30;;
5939;SDS011;2995;-31.998;115.906;2022-09-30T06:17:01;2.13;;;1.00;;
5939;SDS011;2995;-31.998;115.906;2022-09-30T06:19:33;2.80;;;1.03;;
5939;SDS011;2995;-31.998;115.906;2022-09-30T06:22:04;2.70;;;1.07;;
5939;SDS011;2995;-31.998;115.906;2022-09-30T06:24:35;3.07;;;1.20;;
5939;SDS011;2995;-31.998;115.906;2022-09-30T06:27:06;3.23;;;1.20;;
5939;SDS011;2995;-31.998;115.906;2022-09-30T06:29:40;2.83;;;1.03;;
5939;SDS011;2995;-31.998;115.906;2022-09-30T06:32:11;2.83;;;1.80;;
5939;SDS011;2995;-31.998;115.906;2022-09-30T06:34:43;3.70;;;1.20;;
5939;SDS011;2995;-31.998;115.906;2022-09-30T06:37:14;2.07;;;1.30;;
5939;SDS011;2995;-31.998;115.906;2022-09-30T06:39:46;2.47;;;1.10;;
5939;SDS011;2995;-31.998;115.906;2022-09-30T06:42:19;2.50;;;1.23;;
5939;SDS011;2995;-31.998;115.906;2022-09-30T06:44:52;5.77;;;1.33;;
5939;SDS011;2995;-31.998;115.906;2022-09-30T06:47:24;4.80;;;1.43;;
5939;SDS011;2995;-31.998;115.906;2022-09-30T06:49:57;3.63;;;1.63;;
5939;SDS011;2995;-31.998;115.906;2022-09-30T06:52:28;2.63;;;1.40;;
5939;SDS011;2995;-31.998;115.906;2022-09-30T06:55:00;3.00;;;1.33;;
5939;SDS011;2995;-31.998;115.906;2022-09-30T06:57:31;3.43;;;1.53;;
5939;SDS011;2995;-31.998;115.906;2022-09-30T07:00:04;3.13;;;1.97;;
5939;SDS011;2995;-31.998;115.906;2022-09-30T07:02:36;7.70;;;2.30;;
5939;SDS011;2995;-31.998;115.906;2022-09-30T07:05:08;6.60;;;2.00;;
5939;SDS011;2995;-31.998;115.906;2022-09-30T07:07:40;3.83;;;1.67;;
5939;SDS011;2995;-31.998;115.906;2022-09-30T07:10:13;2.67;;;1.67;;
5939;SDS011;2995;-31.998;115.906;2022-09-30T07:12:48;4.47;;;1.63;;
5939;SDS011;2995;-31.998;115.906;2022-09-30T07:15:22;3.03;;;1.60;;
5939;SDS011;2995;-31.998;115.906;2022-09-30T07:17:54;3.73;;;1.60;;
5939;SDS011;2995;-31.998;115.906;2022-09-30T07:20:26;2.13;;;1.20;;
5939;SDS011;2995;-31.998;115.906;2022-09-30T07:22:58;3.83;;;1.80;;
5939;SDS011;2995;-31.998;115.906;2022-09-30T07:25:29;4.37;;;2.03;;
5939;SDS011;2995;-31.998;115.906;2022-09-30T07:28:01;4.00;;;2.30;;
5939;SDS011;2995;-31.998;115.906;2022-09-30T07:30:34;3.80;;;2.53;;
5939;SDS011;2995;-31.998;115.906;2022-09-30T07:33:10;3.03;;;2.57;;
5939;SDS011;2995;-31.998;115.906;2022-09-30T07:35:49;6.17;;;2.90;;
5939;SDS011;2995;-31.998;115.906;2022-09-30T07:38:23;5.40;;;3.47;;
5939;SDS011;2995;-31.998;115.906;2022-09-30T07:40:57;4.70;;;3.50;;
5939;SDS011;2995;-31.998;115.906;2022-09-30T07:43:30;5.30;;;3.80;;
5939;SDS011;2995;-31.998;115.906;2022-09-30T07:46:07;6.80;;;4.33;;
5939;SDS011;2995;-31.998;115.906;2022-09-30T07:48:41;5.03;;;3.70;;
5939;SDS011;2995;-31.998;115.906;2022-09-30T07:51:17;5.60;;;4.90;;
5939;SDS011;2995;-31.998;115.906;2022-09-30T07:53:51;5.60;;;4.20;;
5939;SDS011;2995;-31.998;115.906;2022-09-30T07:56:25;7.28;;;4.70;;
5939;SDS011;2995;-31.998;115.906;2022-09-30T07:58:57;9.17;;;4.43;;
5939;SDS011;2995;-31.998;115.906;2022-09-30T08:01:31;8.23;;;4.63;;
5939;SDS011;2995;-31.998;115.906;2022-09-30T08:04:03;6.87;;;4.80;;
5939;SDS011;2995;-31.998;115.906;2022-09-30T08:06:37;6.40;;;4.80;;
5939;SDS011;2995;-31.998;115.906;2022-09-30T08:09:10;6.30;;;4.33;;
5939;SDS011;2995;-31.998;115.906;2022-09-30T08:11:42;6.33;;;3.73;;
5939;SDS011;2995;-31.998;115.906;2022-09-30T08:14:14;5.20;;;3.97;;
5939;SDS011;2995;-31.998;115.906;2022-09-30T08:16:49;7.53;;;4.43;;
5939;SDS011;2995;-31.998;115.906;2022-09-30T08:19:22;7.17;;;4.73;;
5939;SDS011;2995;-31.998;115.906;2022-09-30T08:21:54;6.23;;;4.83;;
5939;SDS011;2995;-31.998;115.906;2022-09-30T08:24:26;10.90;;;4.57;;
5939;SDS011;2995;-31.998;115.906;2022-09-30T08:26:57;8.17;;;4.13;;
5939;SDS011;2995;-31.998;115.906;2022-09-30T08:29:28;5.70;;;3.87;;
5939;SDS011;2995;-31.998;115.906;2022-09-30T08:32:02;5.67;;;4.20;;
5939;SDS011;2995;-31.998;115.906;2022-09-30T08:34:33;6.17;;;4.37;;
5939;SDS011;2995;-31.998;115.906;2022-09-30T08:37:04;7.30;;;4.97;;
5939;SDS011;2995;-31.998;115.906;2022-09-30T08:39:36;7.32;;;4.20;;
5939;SDS011;2995;-31.998;115.906;2022-09-30T08:42:12;6.87;;;3.60;;
5939;SDS011;2995;-31.998;115.906;2022-09-30T08:44:51;5.50;;;3.47;;
5939;SDS011;2995;-31.998;115.906;2022-09-30T08:47:36;3.93;;;3.40;;
5939;SDS011;2995;-31.998;115.906;2022-09-30T08:50:17;5.80;;;3.97;;
5939;SDS011;2995;-31.998;115.906;2022-09-30T08:52:52;6.23;;;3.70;;
5939;SDS011;2995;-31.998;115.906;2022-09-30T08:55:30;4.87;;;2.37;;
5939;SDS011;2995;-31.998;115.906;2022-09-30T08:58:10;6.93;;;2.03;;
5939;SDS011;2995;-31.998;115.906;2022-09-30T09:00:51;5.30;;;3.50;;
5939;SDS011;2995;-31.998;115.906;2022-09-30T09:03:30;5.00;;;4.17;;
5939;SDS011;2995;-31.998;115.906;2022-09-30T09:06:05;10.63;;;9.53;;
5939;SDS011;2995;-31.998;115.906;2022-09-30T09:08:51;15.30;;;12.10;;
5939;SDS011;2995;-31.998;115.906;2022-09-30T09:11:38;16.27;;;14.67;;
5939;SDS011;2995;-31.998;115.906;2022-09-30T09:14:22;23.50;;;21.20;;
5939;SDS011;2995;-31.998;115.906;2022-09-30T09:17:02;20.13;;;17.77;;
5939;SDS011;2995;-31.998;115.906;2022-09-30T09:19:48;18.77;;;16.83;;
5939;SDS011;2995;-31.998;115.906;2022-09-30T09:22:25;14.83;;;13.27;;
5939;SDS011;2995;-31.998;115.906;2022-09-30T09:24:58;15.03;;;13.43;;
5939;SDS011;2995;-31.998;115.906;2022-09-30T09:27:33;14.03;;;12.70;;
5939;SDS011;2995;-31.998;115.906;2022-09-30T09:30:13;19.60;;;13.80;;
5939;SDS011;2995;-31.998;115.906;2022-09-30T09:32:49;18.13;;;15.20;;
5939;SDS011;2995;-31.998;115.906;2022-09-30T09:35:32;19.07;;;17.00;;
5939;SDS011;2995;-31.998;115.906;2022-09-30T09:38:13;13.93;;;11.50;;
5939;SDS011;2995;-31.998;115.906;2022-09-30T09:40:57;12.13;;;9.17;;
5939;SDS011;2995;-31.998;115.906;2022-09-30T09:43:44;9.30;;;7.80;;
5939;SDS011;2995;-31.998;115.906;2022-09-30T09:46:26;9.33;;;7.30;;
5939;SDS011;2995;-31.998;115.906;2022-09-30T09:55:12;5.13;;;3.03;;
5939;SDS011;2995;-31.998;115.906;2022-09-30T09:57:47;4.83;;;3.07;;
5939;SDS011;2995;-31.998;115.906;2022-09-30T10:00:33;5.80;;;2.83;;
5939;SDS011;2995;-31.998;115.906;2022-09-30T10:03:20;5.50;;;2.70;;
5939;SDS011;2995;-31.998;115.906;2022-09-30T10:06:01;8.13;;;3.23;;
5939;SDS011;2995;-31.998;115.906;2022-09-30T10:08:36;4.97;;;2.70;;
5939;SDS011;2995;-31.998;115.906;2022-09-30T10:11:21;3.87;;;2.57;;
5939;SDS011;2995;-31.998;115.906;2022-09-30T10:13:54;4.30;;;2.53;;
5939;SDS011;2995;-31.998;115.906;2022-09-30T10:16:29;7.03;;;2.00;;
5939;SDS011;2995;-31.998;115.906;2022-09-30T10:19:02;4.33;;;2.00;;
5939;SDS011;2995;-31.998;115.906;2022-09-30T10:21:46;3.57;;;2.00;;
5939;SDS011;2995;-31.998;115.906;2022-09-30T10:24:25;1.80;;;1.60;;
5939;SDS011;2995;-31.998;115.906;2022-09-30T10:26:58;3.03;;;2.03;;
5939;SDS011;2995;-31.998;115.906;2022-09-30T10:29:29;3.97;;;1.80;;
5939;SDS011;2995;-31.998;115.906;2022-09-30T10:32:02;3.60;;;2.07;;
5939;SDS011;2995;-31.998;115.906;2022-09-30T10:34:37;4.27;;;2.27;;
5939;SDS011;2995;-31.998;115.906;2022-09-30T10:37:10;5.63;;;2.10;;
5939;SDS011;2995;-31.998;115.906;2022-09-30T10:39:49;5.43;;;2.67;;
5939;SDS011;2995;-31.998;115.906;2022-09-30T10:42:24;4.57;;;2.80;;
5939;SDS011;2995;-31.998;115.906;2022-09-30T10:44:59;5.90;;;2.60;;
5939;SDS011;2995;-31.998;115.906;2022-09-30T10:47:36;4.40;;;2.90;;
5939;SDS011;2995;-31.998;115.906;2022-09-30T10:50:14;5.57;;;2.40;;
5939;SDS011;2995;-31.998;115.906;2022-09-30T10:52:51;5.13;;;3.00;;
5939;SDS011;2995;-31.998;115.906;2022-09-30T10:55:30;5.17;;;3.03;;
5939;SDS011;2995;-31.998;115.906;2022-09-30T10:58:19;9.17;;;3.30;;
5939;SDS011;2995;-31.998;115.906;2022-09-30T11:00:55;7.25;;;3.50;;
5939;SDS011;2995;-31.998;115.906;2022-09-30T11:03:30;5.57;;;3.50;;
5939;SDS011;2995;-31.998;115.906;2022-09-30T11:06:07;5.80;;;2.67;;
5939;SDS011;2995;-31.998;115.906;2022-09-30T11:08:43;3.80;;;3.20;;
5939;SDS011;2995;-31.998;115.906;2022-09-30T11:11:23;3.93;;;2.60;;
5939;SDS011;2995;-31.998;115.906;2022-09-30T11:14:01;2.93;;;2.50;;
5939;SDS011;2995;-31.998;115.906;2022-09-30T11:16:48;6.43;;;3.93;;
5939;SDS011;2995;-31.998;115.906;2022-09-30T11:19:30;5.40;;;2.73;;
5939;SDS011;2995;-31.998;115.906;2022-09-30T11:22:12;9.27;;;3.00;;
5939;SDS011;2995;-31.998;115.906;2022-09-30T11:24:57;4.80;;;3.00;;
5939;SDS011;2995;-31.998;115.906;2022-09-30T11:27:33;4.33;;;2.53;;
5939;SDS011;2995;-31.998;115.906;2022-09-30T11:30:15;5.80;;;3.20;;
5939;SDS011;2995;-31.998;115.906;2022-09-30T11:32:55;6.77;;;2.90;;
5939;SDS011;2995;-31.998;115.906;2022-09-30T11:35:43;5.53;;;3.27;;
5939;SDS011;2995;-31.998;115.906;2022-09-30T11:38:26;7.27;;;4.90;;
5939;SDS011;2995;-31.998;115.906;2022-09-30T11:41:13;6.40;;;4.43;;
5939;SDS011;2995;-31.998;115.906;2022-09-30T11:43:55;7.07;;;5.17;;
5939;SDS011;2995;-31.998;115.906;2022-09-30T11:46:37;7.17;;;5.13;;
5939;SDS011;2995;-31.998;115.906;2022-09-30T11:49:21;8.53;;;4.70;;
5939;SDS011;2995;-31.998;115.906;2022-09-30T11:52:23;10.53;;;5.47;;
5939;SDS011;2995;-31.998;115.906;2022-09-30T11:55:07;9.40;;;6.07;;
5939;SDS011;2995;-31.998;115.906;2022-09-30T11:57:59;10.23;;;5.60;;
5939;SDS011;2995;-31.998;115.906;2022-09-30T12:00:35;7.07;;;5.90;;
5939;SDS011;2995;-31.998;115.906;2022-09-30T12:03:10;9.10;;;5.70;;
5939;SDS011;2995;-31.998;115.906;2022-09-30T12:05:47;10.70;;;6.93;;
5939;SDS011;2995;-31.998;115.906;2022-09-30T12:08:23;12.93;;;8.10;;
5939;SDS011;2995;-31.998;115.906;2022-09-30T12:10:59;17.57;;;9.77;;
5939;SDS011;2995;-31.998;115.906;2022-09-30T12:13:35;14.27;;;10.97;;
5939;SDS011;2995;-31.998;115.906;2022-09-30T12:16:12;14.60;;;11.10;;
5939;SDS011;2995;-31.998;115.906;2022-09-30T12:18:47;13.93;;;11.63;;
5939;SDS011;2995;-31.998;115.906;2022-09-30T12:21:24;24.23;;;17.33;;
5939;SDS011;2995;-31.998;115.906;2022-09-30T12:23:59;25.10;;;19.73;;
5939;SDS011;2995;-31.998;115.906;2022-09-30T12:26:37;24.77;;;20.00;;
5939;SDS011;2995;-31.998;115.906;2022-09-30T12:29:12;27.47;;;23.83;;
5939;SDS011;2995;-31.998;115.906;2022-09-30T12:32:08;28.50;;;25.50;;
5939;SDS011;2995;-31.998;115.906;2022-09-30T12:34:54;35.93;;;27.70;;
5939;SDS011;2995;-31.998;115.906;2022-09-30T12:37:37;35.90;;;28.07;;
5939;SDS011;2995;-31.998;115.906;2022-09-30T12:40:25;28.77;;;24.23;;
5939;SDS011;2995;-31.998;115.906;2022-09-30T12:43:20;30.07;;;24.33;;
5939;SDS011;2995;-31.998;115.906;2022-09-30T12:48:53;18.93;;;16.17;;
5939;SDS011;2995;-31.998;115.906;2022-09-30T12:51:29;21.83;;;13.40;;
5939;SDS011;2995;-31.998;115.906;2022-09-30T12:54:02;11.10;;;9.77;;
5939;SDS011;2995;-31.998;115.906;2022-09-30T12:56:41;13.60;;;9.20;;
5939;SDS011;2995;-31.998;115.906;2022-09-30T12:59:14;9.87;;;7.47;;
5939;SDS011;2995;-31.998;115.906;2022-09-30T13:01:52;8.40;;;6.03;;
5939;SDS011;2995;-31.998;115.906;2022-09-30T13:04:33;5.43;;;4.33;;
5939;SDS011;2995;-31.998;115.906;2022-09-30T13:07:17;4.30;;;3.90;;
5939;SDS011;2995;-31.998;115.906;2022-09-30T13:15:51;3.43;;;2.37;;
5939;SDS011;2995;-31.998;115.906;2022-09-30T13:21:39;5.23;;;2.70;;
5939;SDS011;2995;-31.998;115.906;2022-09-30T13:24:10;3.60;;;2.47;;
5939;SDS011;2995;-31.998;115.906;2022-09-30T13:26:47;6.00;;;2.83;;
5939;SDS011;2995;-31.998;115.906;2022-09-30T13:29:37;6.47;;;2.50;;
5939;SDS011;2995;-31.998;115.906;2022-09-30T13:32:31;3.47;;;2.80;;
5939;SDS011;2995;-31.998;115.906;2022-09-30T13:41:06;4.50;;;2.67;;
5939;SDS011;2995;-31.998;115.906;2022-09-30T13:43:45;4.93;;;2.97;;
5939;SDS011;2995;-31.998;115.906;2022-09-30T13:46:29;3.90;;;3.30;;
5939;SDS011;2995;-31.998;115.906;2022-09-30T13:49:09;5.80;;;3.03;;
5939;SDS011;2995;-31.998;115.906;2022-09-30T13:51:45;3.30;;;2.53;;
5939;SDS011;2995;-31.998;115.906;2022-09-30T13:54:21;6.30;;;2.90;;
5939;SDS011;2995;-31.998;115.906;2022-09-30T13:56:57;4.73;;;2.53;;
5939;SDS011;2995;-31.998;115.906;2022-09-30T14:02:36;3.53;;;2.43;;
5939;SDS011;2995;-31.998;115.906;2022-09-30T14:11:54;2.93;;;1.80;;
5939;SDS011;2995;-31.998;115.906;2022-09-30T14:14:51;3.50;;;1.80;;
5939;SDS011;2995;-31.998;115.906;2022-09-30T14:17:45;3.70;;;1.87;;
5939;SDS011;2995;-31.998;115.906;2022-09-30T14:20:47;2.27;;;1.80;;
5939;SDS011;2995;-31.998;115.906;2022-09-30T14:23:39;2.47;;;1.60;;
5939;SDS011;2995;-31.998;115.906;2022-09-30T14:26:18;3.30;;;2.13;;
5939;SDS011;2995;-31.998;115.906;2022-09-30T14:29:14;5.33;;;2.17;;
5939;SDS011;2995;-31.998;115.906;2022-09-30T14:31:50;2.70;;;2.03;;
5939;SDS011;2995;-31.998;115.906;2022-09-30T14:34:22;2.50;;;1.87;;
5939;SDS011;2995;-31.998;115.906;2022-09-30T14:36:57;3.90;;;1.70;;
5939;SDS011;2995;-31.998;115.906;2022-09-30T14:39:29;4.10;;;1.80;;
5939;SDS011;2995;-31.998;115.906;2022-09-30T14:42:01;3.60;;;1.90;;
5939;SDS011;2995;-31.998;115.906;2022-09-30T14:44:35;3.40;;;1.80;;
5939;SDS011;2995;-31.998;115.906;2022-09-30T14:47:07;6.27;;;1.83;;
5939;SDS011;2995;-31.998;115.906;2022-09-30T14:49:43;2.80;;;1.67;;
5939;SDS011;2995;-31.998;115.906;2022-09-30T14:55:17;4.33;;;2.00;;
5939;SDS011;2995;-31.998;115.906;2022-09-30T14:58:13;2.83;;;1.80;;
5939;SDS011;2995;-31.998;115.906;2022-09-30T15:00:56;7.30;;;2.20;;
5939;SDS011;2995;-31.998;115.906;2022-09-30T15:03:31;2.77;;;2.00;;
5939;SDS011;2995;-31.998;115.906;2022-09-30T15:06:04;4.57;;;2.40;;
5939;SDS011;2995;-31.998;115.906;2022-09-30T15:08:46;5.30;;;2.63;;
5939;SDS011;2995;-31.998;115.906;2022-09-30T15:11:19;2.87;;;2.10;;
5939;SDS011;2995;-31.998;115.906;2022-09-30T15:13:56;5.97;;;2.90;;
5939;SDS011;2995;-31.998;115.906;2022-09-30T15:16:31;2.83;;;2.13;;
5939;SDS011;2995;-31.998;115.906;2022-09-30T15:19:02;4.17;;;2.37;;
5939;SDS011;2995;-31.998;115.906;2022-09-30T15:21:43;3.50;;;2.23;;
5939;SDS011;2995;-31.998;115.906;2022-09-30T15:24:15;3.57;;;2.03;;
5939;SDS011;2995;-31.998;115.906;2022-09-30T15:26:48;2.70;;;1.97;;
5939;SDS011;2995;-31.998;115.906;2022-09-30T15:29:20;2.27;;;1.87;;
5939;SDS011;2995;-31.998;115.906;2022-09-30T15:31:56;2.17;;;1.70;;
5939;SDS011;2995;-31.998;115.906;2022-09-30T15:34:30;3.13;;;1.80;;
5939;SDS011;2995;-31.998;115.906;2022-09-30T15:37:01;2.97;;;1.97;;
5939;SDS011;2995;-31.998;115.906;2022-09-30T15:39:36;2.70;;;1.80;;
5939;SDS011;2995;-31.998;115.906;2022-09-30T15:42:28;3.90;;;1.87;;
5939;SDS011;2995;-31.998;115.906;2022-09-30T15:45:03;2.80;;;1.70;;
5939;SDS011;2995;-31.998;115.906;2022-09-30T15:47:55;3.40;;;2.10;;
5939;SDS011;2995;-31.998;115.906;2022-09-30T15:50:37;2.60;;;1.53;;
5939;SDS011;2995;-31.998;115.906;2022-09-30T15:53:14;1.53;;;1.30;;
5939;SDS011;2995;-31.998;115.906;2022-09-30T15:55:45;3.30;;;2.27;;
5939;SDS011;2995;-31.998;115.906;2022-09-30T15:58:29;8.50;;;2.80;;
5939;SDS011;2995;-31.998;115.906;2022-09-30T16:01:12;3.90;;;2.30;;
5939;SDS011;2995;-31.998;115.906;2022-09-30T16:03:52;3.13;;;2.60;;
5939;SDS011;2995;-31.998;115.906;2022-09-30T16:06:26;3.80;;;2.80;;
5939;SDS011;2995;-31.998;115.906;2022-09-30T16:09:00;4.60;;;4.07;;
5939;SDS011;2995;-31.998;115.906;2022-09-30T16:11:33;4.43;;;3.77;;
5939;SDS011;2995;-31.998;115.906;2022-09-30T16:14:07;5.80;;;4.00;;
5939;SDS011;2995;-31.998;115.906;2022-09-30T16:16:46;5.37;;;4.60;;
5939;SDS011;2995;-31.998;115.906;2022-09-30T16:19:21;6.13;;;4.93;;
5939;SDS011;2995;-31.998;115.906;2022-09-30T16:21:53;11.30;;;5.37;;
5939;SDS011;2995;-31.998;115.906;2022-09-30T16:27:29;10.23;;;5.57;;
5939;SDS011;2995;-31.998;115.906;2022-09-30T16:30:00;7.87;;;6.17;;
5939;SDS011;2995;-31.998;115.906;2022-09-30T16:32:34;6.33;;;4.90;;
5939;SDS011;2995;-31.998;115.906;2022-09-30T16:35:13;7.77;;;6.57;;
5939;SDS011;2995;-31.998;115.906;2022-09-30T16:37:47;8.00;;;5.47;;
5939;SDS011;2995;-31.998;115.906;2022-09-30T16:40:20;8.93;;;6.30;;
5939;SDS011;2995;-31.998;115.906;2022-09-30T16:42:52;7.77;;;4.83;;
5939;SDS011;2995;-31.998;115.906;2022-09-30T16:45:24;6.67;;;4.50;;